Time;durP1;ratioP1;P1;durP2;ratioP2;P2;SDS_P1;SDS_P2;PMS_P1;PMS_P2;Temp;Humidity;BMP_temperature;BMP_pressure;BME280_temperature;BME280_humidity;BME280_pressure;Samples;Min_cycle;Max_cycle;Signal;HPM_P1;HPM_P2
2023/09/13 00:00:47;;;;;;;0.00;0.00;;;;;;;16.40;81.25;100592.28;4974073;28;20119;-73
2023/09/13 00:03:13;;;;;;;0.00;0.00;;;;;;;16.44;81.01;100587.81;5012232;28;20021;-73
2023/09/13 00:05:42;;;;;;;0.00;0.00;;;;;;;16.39;80.91;100594.19;4986921;28;20057;-74
2023/09/13 00:08:07;;;;;;;0.00;0.00;;;;;;;16.35;81.03;100595.13;5031546;28;20060;-73
2023/09/13 00:10:33;;;;;;;0.00;0.00;;;;;;;16.33;81.29;100586.31;4989526;28;20037;-75
2023/09/13 00:12:58;;;;;;;0.00;0.00;;;;;;;16.36;81.17;100591.25;4996351;28;20037;-74
2023/09/13 00:15:24;;;;;;;0.00;0.00;;;;;;;16.35;81.04;100601.47;4977587;28;20044;-74
2023/09/13 00:17:49;;;;;;;0.00;0.00;;;;;;;16.42;81.06;100601.06;4985845;28;20036;-73
2023/09/13 00:20:15;;;;;;;0.00;0.00;;;;;;;16.44;80.82;100600.78;4994136;28;20463;-74
2023/09/13 00:22:41;;;;;;;0.00;0.00;;;;;;;16.49;80.76;100607.03;4987103;28;20028;-75
2023/09/13 00:25:06;;;;;;;0.00;0.00;;;;;;;16.51;80.01;100593.72;4995915;28;20112;-74
2023/09/13 00:27:32;;;;;;;0.00;0.00;;;;;;;16.60;80.31;100609.63;4993186;28;20033;-75
2023/09/13 00:29:57;;;;;;;0.00;0.00;;;;;;;16.51;80.17;100599.25;4983995;28;20091;-74
2023/09/13 00:32:23;;;;;;;0.00;0.00;;;;;;;16.52;80.10;100611.94;4996247;28;20480;-75
2023/09/13 00:34:48;;;;;;;0.00;0.00;;;;;;;16.45;79.16;100611.50;4989055;28;20033;-74
2023/09/13 00:37:13;;;;;;;0.00;0.00;;;;;;;16.37;78.97;100620.47;4993960;28;20034;-74
2023/09/13 00:39:41;;;;;;;0.00;0.00;;;;;;;16.31;78.80;100629.94;4992867;28;20034;-76
2023/09/13 00:42:07;;;;;;;0.00;0.00;;;;;;;16.27;79.16;100631.69;4980386;28;20025;-74
2023/09/13 00:44:32;;;;;;;0.00;0.00;;;;;;;16.17;78.79;100633.47;4995760;28;20116;-74
2023/09/13 00:46:58;;;;;;;0.00;0.00;;;;;;;16.22;79.26;100638.06;4974221;28;20044;-75
2023/09/13 00:49:23;;;;;;;0.00;0.00;;;;;;;16.19;78.87;100641.44;4979938;28;20025;-76
2023/09/13 00:51:50;;;;;;;0.00;0.00;;;;;;;16.08;79.12;100638.03;5005380;28;20504;-74
2023/09/13 00:54:15;;;;;;;0.00;0.00;;;;;;;15.91;78.83;100629.44;5004723;28;20468;-74
2023/09/13 00:56:41;;;;;;;0.00;0.00;;;;;;;15.87;78.58;100635.53;4989952;28;20044;-73
2023/09/13 00:59:09;;;;;;;0.00;0.00;;;;;;;15.76;79.05;100628.50;4992371;28;20033;-73
2023/09/13 01:01:35;;;;;;;0.00;0.00;;;;;;;15.65;78.95;100632.50;5008390;28;20391;-73
2023/09/13 01:04:01;;;;;;;0.00;0.00;;;;;;;15.48;78.82;100636.56;4971980;28;20029;-75
2023/09/13 01:06:27;;;;;;;0.00;0.00;;;;;;;15.36;79.79;100658.16;4988336;28;20053;-75
2023/09/13 01:08:52;;;;;;;0.00;0.00;;;;;;;15.08;79.89;100646.91;5001098;28;20033;-75
2023/09/13 01:11:18;;;;;;;0.00;0.00;;;;;;;14.87;80.73;100646.28;4975023;28;20029;-73
2023/09/13 01:13:44;;;;;;;0.00;0.00;;;;;;;14.93;81.08;100655.31;5020932;28;20039;-74
2023/09/13 01:16:25;;;;;;;0.00;0.00;;;;;;;14.96;80.96;100654.75;4974000;28;20026;-72
2023/09/13 01:19:09;;;;;;;0.00;0.00;;;;;;;15.05;80.94;100653.00;5021311;28;20086;-73
2023/09/13 01:22:07;;;;;;;0.00;0.00;;;;;;;15.06;80.71;100660.16;5004729;28;20412;-72
2023/09/13 01:25:21;;;;;;;0.00;0.00;;;;;;;14.97;80.36;100661.91;4970700;28;20112;-74
2023/09/13 01:28:07;;;;;;;0.00;0.00;;;;;;;14.99;80.84;100665.16;4903841;29;20024;-73
2023/09/13 01:30:34;;;;;;;0.00;0.00;;;;;;;14.98;80.59;100656.09;5009758;28;20384;-74
2023/09/13 01:33:00;;;;;;;0.00;0.00;;;;;;;14.98;80.38;100647.00;4987915;28;20060;-73
2023/09/13 01:35:25;;;;;;;0.00;0.00;;;;;;;15.03;79.88;100666.25;5001493;28;20396;-74
2023/09/13 01:37:51;;;;;;;0.00;0.00;;;;;;;14.99;80.00;100665.16;4977048;28;20079;-75
2023/09/13 01:40:16;;;;;;;0.00;0.00;;;;;;;15.00;79.91;100669.56;4985771;28;20053;-76
2023/09/13 01:42:43;;;;;;;0.00;0.00;;;;;;;14.92;79.85;100657.28;5018103;28;20396;-73
2023/09/13 01:45:12;;;;;;;0.00;0.00;;;;;;;14.93;79.80;100660.84;4975018;28;20046;-73
2023/09/13 01:47:42;;;;;;;0.00;0.00;;;;;;;14.97;80.00;100670.16;4993144;28;20034;-74
2023/09/13 01:50:08;;;;;;;0.00;0.00;;;;;;;14.86;79.61;100660.34;5018079;28;20064;-73
2023/09/13 01:52:34;;;;;;;0.00;0.00;;;;;;;14.91;79.83;100674.06;5014187;28;20040;-74
2023/09/13 01:55:04;;;;;;;0.00;0.00;;;;;;;14.89;79.57;100674.34;5001659;28;20025;-73
2023/09/13 01:57:29;;;;;;;0.00;0.00;;;;;;;14.87;79.90;100678.50;5002715;28;20057;-73
2023/09/13 01:59:54;;;;;;;0.00;0.00;;;;;;;14.83;80.20;100670.84;4990846;28;20492;-73
2023/09/13 02:02:20;;;;;;;0.00;0.00;;;;;;;14.85;80.05;100681.56;4988040;28;20025;-76
2023/09/13 02:04:45;;;;;;;0.00;0.00;;;;;;;14.75;79.96;100682.44;5003450;28;20091;-77
2023/09/13 02:07:11;;;;;;;0.00;0.00;;;;;;;14.73;80.02;100690.16;5008029;28;20141;-73
2023/09/13 02:09:37;;;;;;;0.00;0.00;;;;;;;14.71;80.30;100697.09;5009931;28;20119;-74
2023/09/13 02:12:04;;;;;;;0.00;0.00;;;;;;;14.65;80.32;100688.03;4986867;28;20053;-75
2023/09/13 02:14:29;;;;;;;0.00;0.00;;;;;;;14.74;80.36;100691.81;4970927;28;20025;-73
2023/09/13 02:16:58;;;;;;;0.00;0.00;;;;;;;14.77;80.05;100702.25;4990672;28;20381;-74
2023/09/13 02:19:23;;;;;;;0.00;0.00;;;;;;;14.77;80.14;100707.75;4993155;28;20025;-73
2023/09/13 02:21:49;;;;;;;0.00;0.00;;;;;;;14.78;80.15;100720.41;4994336;28;20083;-73
2023/09/13 02:24:16;;;;;;;0.00;0.00;;;;;;;14.81;80.15;100719.84;4975451;28;20090;-73
2023/09/13 02:26:42;;;;;;;0.00;0.00;;;;;;;14.86;80.06;100726.41;4991109;28;20034;-73
2023/09/13 02:29:07;;;;;;;0.00;0.00;;;;;;;14.86;80.24;100716.22;5033139;28;20025;-73
2023/09/13 02:31:33;;;;;;;0.00;0.00;;;;;;;14.99;80.13;100725.75;4975132;28;20037;-74
2023/09/13 02:33:58;;;;;;;0.00;0.00;;;;;;;15.03;79.26;100721.31;4986894;28;20079;-74
2023/09/13 02:36:26;;;;;;;0.00;0.00;;;;;;;15.04;79.46;100717.47;4989863;28;20385;-73
2023/09/13 02:39:02;;;;;;;0.00;0.00;;;;;;;15.05;79.60;100718.28;4975452;28;20109;-73
2023/09/13 02:41:27;;;;;;;0.00;0.00;;;;;;;15.02;79.52;100708.66;4991315;28;20029;-73
2023/09/13 02:43:53;;;;;;;0.00;0.00;;;;;;;15.18;79.28;100718.41;5006662;28;20028;-74
2023/09/13 02:46:18;;;;;;;0.00;0.00;;;;;;;15.14;79.27;100711.84;4989365;28;20409;-74
2023/09/13 02:48:43;;;;;;;0.00;0.00;;;;;;;15.14;78.74;100714.63;5002250;28;20112;-74
2023/09/13 02:51:13;;;;;;;0.00;0.00;;;;;;;15.17;79.08;100704.94;4976612;28;20035;-73
2023/09/13 02:53:39;;;;;;;0.00;0.00;;;;;;;15.22;79.15;100706.84;5003785;28;20018;-73
2023/09/13 02:56:08;;;;;;;0.00;0.00;;;;;;;15.31;79.14;100705.91;4973167;28;20042;-74
2023/09/13 02:58:34;;;;;;;0.00;0.00;;;;;;;15.29;78.88;100701.81;5007307;28;20095;-74
2023/09/13 03:01:03;;;;;;;0.00;0.00;;;;;;;15.27;78.73;100701.25;5000333;28;20060;-73
2023/09/13 03:03:30;;;;;;;0.00;0.00;;;;;;;15.26;78.74;100707.88;4989576;28;20488;-74
2023/09/13 03:06:10;;;;;;;0.00;0.00;;;;;;;15.17;78.55;100705.78;4994460;28;20500;-74
2023/09/13 03:08:35;;;;;;;0.00;0.00;;;;;;;15.22;78.63;100710.41;5018836;28;20646;-74
2023/09/13 03:11:11;;;;;;;0.00;0.00;;;;;;;15.29;78.26;100712.84;5004043;28;20033;-75
2023/09/13 03:13:37;;;;;;;0.00;0.00;;;;;;;15.13;77.95;100703.88;4999798;28;20049;-73
2023/09/13 03:16:20;;;;;;;0.00;0.00;;;;;;;15.10;78.30;100710.78;4964007;28;20476;-74
2023/09/13 03:18:47;;;;;;;0.00;0.00;;;;;;;15.08;77.99;100713.00;4994848;28;20042;-74
2023/09/13 03:21:13;;;;;;;0.00;0.00;;;;;;;15.01;78.03;100718.84;5029281;28;20029;-74
2023/09/13 03:23:42;;;;;;;0.00;0.00;;;;;;;14.96;78.53;100712.56;4991140;28;20034;-73
2023/09/13 03:26:19;;;;;;;0.00;0.00;;;;;;;14.91;78.16;100716.19;5026110;28;20021;-74
2023/09/13 03:28:46;;;;;;;0.00;0.00;;;;;;;14.82;78.97;100710.47;5006974;28;20041;-74
2023/09/13 03:31:13;;;;;;;0.00;0.00;;;;;;;14.83;78.49;100711.28;5012000;28;20728;-75
2023/09/13 03:33:39;;;;;;;0.00;0.00;;;;;;;14.83;79.02;100717.63;4991722;28;20060;-75
2023/09/13 03:36:09;;;;;;;0.00;0.00;;;;;;;14.88;79.09;100718.69;5004168;28;20207;-74
2023/09/13 03:38:37;;;;;;;0.00;0.00;;;;;;;14.92;78.79;100708.75;5004723;28;20037;-75
2023/09/13 03:41:03;;;;;;;0.00;0.00;;;;;;;14.94;78.90;100717.56;5003667;28;20132;-75
2023/09/13 03:43:29;;;;;;;0.00;0.00;;;;;;;14.77;78.93;100724.28;5015893;28;20024;-73
2023/09/13 03:45:55;;;;;;;0.00;0.00;;;;;;;14.76;79.54;100717.13;4973248;28;20033;-73
2023/09/13 03:48:21;;;;;;;0.00;0.00;;;;;;;14.81;79.21;100730.03;5025499;28;20079;-73
2023/09/13 03:50:46;;;;;;;0.00;0.00;;;;;;;14.77;79.27;100729.78;4989203;28;20053;-74
2023/09/13 03:53:12;;;;;;;0.00;0.00;;;;;;;14.72;78.90;100727.06;5005142;28;20480;-74
2023/09/13 03:55:38;;;;;;;0.00;0.00;;;;;;;14.62;78.95;100716.94;4983536;28;20030;-74
2023/09/13 03:58:03;;;;;;;0.00;0.00;;;;;;;14.69;79.17;100732.31;4989758;28;20030;-73
2023/09/13 04:00:29;;;;;;;0.00;0.00;;;;;;;14.63;79.07;100723.28;5029085;28;20033;-73
2023/09/13 04:02:54;;;;;;;0.00;0.00;;;;;;;14.63;78.85;100734.28;4995338;28;20107;-73
2023/09/13 04:05:19;;;;;;;0.00;0.00;;;;;;;14.63;79.22;100737.03;5007993;28;20026;-73
2023/09/13 04:07:46;;;;;;;0.00;0.00;;;;;;;14.64;79.26;100730.44;4995235;28;20030;-74
2023/09/13 04:10:11;;;;;;;0.00;0.00;;;;;;;14.73;78.86;100745.22;4968919;28;20034;-73
2023/09/13 04:12:37;;;;;;;0.00;0.00;;;;;;;14.64;78.95;100730.44;4995171;28;20873;-75
2023/09/13 04:15:03;;;;;;;0.00;0.00;;;;;;;14.67;78.59;100740.84;5006671;28;20079;-72
2023/09/13 04:17:29;;;;;;;0.00;0.00;;;;;;;14.63;78.73;100742.53;5009270;28;20033;-74
2023/09/13 04:19:54;;;;;;;0.00;0.00;;;;;;;14.65;78.56;100748.59;4975860;28;20029;-72
2023/09/13 04:22:20;;;;;;;0.00;0.00;;;;;;;14.59;79.00;100744.22;4992667;28;20044;-73
2023/09/13 04:24:45;;;;;;;0.00;0.00;;;;;;;14.55;78.56;100748.63;5009090;28;20052;-74
2023/09/13 04:27:11;;;;;;;0.00;0.00;;;;;;;14.52;78.66;100750.00;4975018;28;22072;-72
2023/09/13 04:29:41;;;;;;;0.00;0.00;;;;;;;14.42;78.74;100747.31;4975371;28;20032;-74
2023/09/13 04:32:06;;;;;;;0.00;0.00;;;;;;;14.30;78.63;100747.66;5006921;28;20033;-76
2023/09/13 04:34:36;;;;;;;0.00;0.00;;;;;;;13.98;79.04;100706.84;5017587;28;20041;-75
2023/09/13 04:37:03;;;;;;;0.00;0.00;;;;;;;14.21;78.90;100754.88;5006908;28;20111;-76
2023/09/13 04:39:31;;;;;;;0.00;0.00;;;;;;;13.93;78.84;100715.94;5004175;28;21424;-76
2023/09/13 04:42:06;;;;;;;0.00;0.00;;;;;;;14.09;79.07;100758.78;5010926;28;20026;-76
2023/09/13 04:44:32;;;;;;;0.00;0.00;;;;;;;13.94;79.10;100761.56;4994302;28;20030;-75
2023/09/13 04:46:58;;;;;;;0.00;0.00;;;;;;;13.79;79.56;100763.25;5011938;28;20029;-76
2023/09/13 04:49:24;;;;;;;0.00;0.00;;;;;;;13.61;79.79;100763.88;4981933;28;20103;-74
2023/09/13 04:51:49;;;;;;;0.00;0.00;;;;;;;13.43;80.31;100766.09;5012680;28;20518;-74
2023/09/13 04:54:15;;;;;;;0.00;0.00;;;;;;;13.33;80.35;100768.00;4978406;28;20033;-73
2023/09/13 04:56:40;;;;;;;0.00;0.00;;;;;;;13.25;80.91;100778.44;4992030;28;20076;-72
2023/09/13 04:59:06;;;;;;;0.00;0.00;;;;;;;13.32;81.07;100777.34;5003005;28;20024;-72
2023/09/13 05:01:31;;;;;;;0.00;0.00;;;;;;;13.40;81.01;100785.88;4996187;28;20063;-73
2023/09/13 05:03:58;;;;;;;0.00;0.00;;;;;;;13.46;80.42;100783.13;4997761;28;20117;-74
2023/09/13 05:06:24;;;;;;;0.00;0.00;;;;;;;13.50;80.64;100767.72;5022588;28;20435;-73
2023/09/13 05:08:52;;;;;;;0.00;0.00;;;;;;;13.56;80.24;100772.13;4977612;28;20025;-72
2023/09/13 05:11:17;;;;;;;0.00;0.00;;;;;;;13.71;80.23;100785.84;5009160;28;20100;-74
2023/09/13 05:13:47;;;;;;;0.00;0.00;;;;;;;13.74;79.94;100779.78;4999624;28;20091;-72
2023/09/13 05:16:19;;;;;;;0.00;0.00;;;;;;;13.78;80.05;100780.88;4988401;28;20057;-74
2023/09/13 05:18:45;;;;;;;0.00;0.00;;;;;;;13.91;80.00;100806.13;5009768;28;20419;-74
2023/09/13 05:21:10;;;;;;;0.00;0.00;;;;;;;13.89;79.60;100802.84;4984772;28;20034;-72
2023/09/13 05:23:35;;;;;;;0.00;0.00;;;;;;;13.87;79.84;100805.88;4966474;28;20025;-73
2023/09/13 05:26:02;;;;;;;0.00;0.00;;;;;;;13.86;79.71;100814.38;4980783;28;20025;-73
2023/09/13 05:28:33;;;;;;;0.00;0.00;;;;;;;13.86;79.87;100812.47;4991249;28;20068;-73
2023/09/13 05:30:58;;;;;;;0.00;0.00;;;;;;;13.87;79.96;100821.50;4993269;28;20357;-74
2023/09/13 05:33:25;;;;;;;0.00;0.00;;;;;;;13.88;79.57;100825.91;5002119;28;20034;-73
2023/09/13 05:35:51;;;;;;;0.00;0.00;;;;;;;13.82;80.04;100827.03;4990149;28;20033;-73
2023/09/13 05:38:16;;;;;;;0.00;0.00;;;;;;;13.80;79.92;100827.31;5023163;28;20047;-73
2023/09/13 05:40:45;;;;;;;0.00;0.00;;;;;;;13.85;79.80;100842.97;5008837;28;20022;-73
2023/09/13 05:43:10;;;;;;;0.00;0.00;;;;;;;13.76;80.03;100838.03;4993703;28;20030;-74
2023/09/13 05:45:36;;;;;;;0.00;0.00;;;;;;;13.70;80.43;100836.41;4962119;28;20088;-74
2023/09/13 05:48:02;;;;;;;0.00;0.00;;;;;;;13.66;81.19;100837.22;4993786;28;20036;-73
2023/09/13 05:50:27;;;;;;;0.00;0.00;;;;;;;13.56;81.41;100832.56;4980926;28;20060;-73
2023/09/13 05:52:56;;;;;;;0.00;0.00;;;;;;;13.47;81.79;100828.72;5009464;28;20049;-74
2023/09/13 05:55:22;;;;;;;0.00;0.00;;;;;;;13.56;81.40;100849.03;5020704;28;20037;-75
2023/09/13 05:57:49;;;;;;;0.00;0.00;;;;;;;13.58;81.49;100857.81;5012047;28;20022;-73
2023/09/13 06:00:15;;;;;;;0.00;0.00;;;;;;;13.64;81.28;100862.25;5024037;28;20052;-73
2023/09/13 06:02:40;;;;;;;0.00;0.00;;;;;;;13.66;81.68;100865.53;5009097;28;20033;-74
2023/09/13 06:05:06;;;;;;;0.00;0.00;;;;;;;13.73;81.48;100866.06;4990448;28;20033;-73
2023/09/13 06:07:31;;;;;;;0.00;0.00;;;;;;;13.72;81.71;100863.59;4988444;28;20080;-72
2023/09/13 06:09:58;;;;;;;0.00;0.00;;;;;;;13.83;81.54;100872.66;4978362;28;20017;-72
2023/09/13 06:12:24;;;;;;;0.00;0.00;;;;;;;13.91;81.43;100874.84;4985299;28;20069;-72
2023/09/13 06:14:51;;;;;;;0.00;0.00;;;;;;;13.93;81.01;100875.38;5008533;28;20057;-72
2023/09/13 06:17:17;;;;;;;0.00;0.00;;;;;;;14.00;80.98;100886.09;4983229;28;20067;-73
2023/09/13 06:19:42;;;;;;;0.00;0.00;;;;;;;14.07;80.80;100887.44;4994612;28;20033;-73
2023/09/13 06:22:08;;;;;;;0.00;0.00;;;;;;;14.09;81.09;100878.91;5003307;28;20045;-73
2023/09/13 06:24:34;;;;;;;0.00;0.00;;;;;;;14.05;80.92;100889.66;4993132;28;20030;-73
2023/09/13 06:26:59;;;;;;;0.00;0.00;;;;;;;13.78;81.12;100895.47;5003711;28;20028;-73
2023/09/13 06:29:24;;;;;;;0.00;0.00;;;;;;;13.58;82.14;100890.78;5008945;28;20444;-73
2023/09/13 06:31:54;;;;;;;0.00;0.00;;;;;;;13.41;82.48;100885.59;4984274;28;20395;-73
2023/09/13 06:34:19;;;;;;;0.00;0.00;;;;;;;13.33;82.77;100889.69;4988515;28;20483;-73
2023/09/13 06:36:48;;;;;;;0.00;0.00;;;;;;;13.38;82.94;100897.94;4991221;28;20057;-73
2023/09/13 06:39:14;;;;;;;0.00;0.00;;;;;;;13.43;83.21;100897.97;4999803;28;20021;-73
2023/09/13 06:41:39;;;;;;;0.00;0.00;;;;;;;13.61;82.63;100901.25;4984323;28;20025;-72
2023/09/13 06:44:09;;;;;;;0.00;0.00;;;;;;;13.93;82.16;100902.88;4989940;28;20026;-76
2023/09/13 06:46:36;;;;;;;0.00;0.00;;;;;;;14.23;81.59;100899.25;5020093;28;20087;-73
2023/09/13 06:49:02;;;;;;;0.00;0.00;;;;;;;14.60;80.83;100906.28;4988713;28;20432;-74
2023/09/13 06:51:27;;;;;;;0.00;0.00;;;;;;;14.85;79.81;100901.81;4987357;28;20728;-72
2023/09/13 06:53:52;;;;;;;0.00;0.00;;;;;;;15.06;79.42;100913.53;5006080;28;20056;-73
2023/09/13 06:56:18;;;;;;;0.00;0.00;;;;;;;15.23;79.08;100912.31;4965739;28;20040;-73
2023/09/13 06:58:43;;;;;;;0.00;0.00;;;;;;;15.44;78.92;100905.56;4976509;28;20069;-73
2023/09/13 07:01:09;;;;;;;0.00;0.00;;;;;;;15.57;77.49;100900.53;4991077;28;20048;-77
2023/09/13 07:03:34;;;;;;;0.00;0.00;;;;;;;15.54;76.26;100924.78;5005047;28;20029;-77
2023/09/13 07:06:00;;;;;;;0.00;0.00;;;;;;;15.43;75.50;100897.59;4990251;28;20085;-78
2023/09/13 07:08:25;;;;;;;0.00;0.00;;;;;;;15.58;74.77;100915.94;5004616;28;20072;-79
2023/09/13 07:10:50;;;;;;;0.00;0.00;;;;;;;15.50;74.33;100904.41;4995492;28;20033;-77
2023/09/13 07:13:16;;;;;;;0.00;0.00;;;;;;;15.46;74.43;100917.13;4994692;28;20026;-75
2023/09/13 07:15:41;;;;;;;0.00;0.00;;;;;;;15.61;74.57;100929.13;4974592;28;20083;-76
2023/09/13 07:18:08;;;;;;;0.00;0.00;;;;;;;15.64;74.16;100928.59;4995168;28;20037;-77
2023/09/13 07:20:34;;;;;;;0.00;0.00;;;;;;;15.89;73.60;100935.84;4988444;28;20026;-77
2023/09/13 07:23:00;;;;;;;0.00;0.00;;;;;;;16.05;73.00;100944.78;5003376;28;20036;-76
2023/09/13 07:25:25;;;;;;;0.00;0.00;;;;;;;16.13;72.56;100946.91;4976636;28;20053;-76
2023/09/13 07:27:51;;;;;;;0.00;0.00;;;;;;;16.26;71.59;100933.56;5027779;28;20495;-77
2023/09/13 07:30:16;;;;;;;0.00;0.00;;;;;;;16.49;71.47;100943.78;4974384;28;20468;-77
2023/09/13 07:32:41;;;;;;;0.00;0.00;;;;;;;16.82;70.98;100948.66;5011210;28;20160;-77
2023/09/13 07:35:07;;;;;;;0.00;0.00;;;;;;;17.04;69.70;100937.91;5010423;28;20022;-76
2023/09/13 07:37:33;;;;;;;0.00;0.00;;;;;;;17.41;69.40;100943.72;5004180;28;20096;-76
2023/09/13 07:39:59;;;;;;;0.00;0.00;;;;;;;17.31;68.36;100939.16;4999099;28;20029;-76
2023/09/13 07:42:24;;;;;;;0.00;0.00;;;;;;;17.15;67.53;100951.56;5010457;28;20037;-77
2023/09/13 07:44:53;;;;;;;0.00;0.00;;;;;;;16.89;67.69;100925.13;4971779;28;20025;-76
2023/09/13 07:47:18;;;;;;;0.00;0.00;;;;;;;17.25;67.56;100957.75;4994421;28;20057;-77
2023/09/13 07:49:46;;;;;;;0.00;0.00;;;;;;;17.26;66.72;100929.00;4996347;28;20156;-76
2023/09/13 07:52:14;;;;;;;0.00;0.00;;;;;;;17.65;65.51;100928.97;4997449;28;20033;-76
2023/09/13 07:54:39;;;;;;;0.00;0.00;;;;;;;18.03;64.35;100954.63;4978691;28;20040;-76
2023/09/13 07:57:05;;;;;;;0.00;0.00;;;;;;;18.23;64.35;100964.53;5009509;28;20026;-77
2023/09/13 07:59:31;;;;;;;0.00;0.00;;;;;;;18.67;63.30;100943.75;4997928;28;20025;-75
2023/09/13 08:01:59;;;;;;;0.00;0.00;;;;;;;19.20;61.83;100955.41;4978328;28;20045;-75
2023/09/13 08:04:24;;;;;;;0.00;0.00;;;;;;;19.84;60.23;100944.22;5006749;28;20034;-75
2023/09/13 08:06:52;;;;;;;0.00;0.00;;;;;;;21.27;56.45;100963.59;4959110;28;21305;-76
2023/09/13 08:09:18;;;;;;;0.00;0.00;;;;;;;22.33;52.44;100975.50;4985927;28;20092;-76
2023/09/13 08:11:46;;;;;;;0.00;0.00;;;;;;;23.82;49.16;100981.00;4984683;28;20043;-76
2023/09/13 08:14:12;;;;;;;0.00;0.00;;;;;;;25.69;44.95;100989.16;4989159;28;20478;-76
2023/09/13 08:16:38;;;;;;;0.00;0.00;;;;;;;27.21;41.47;100974.25;4967276;28;20038;-76
2023/09/13 08:19:03;;;;;;;0.00;0.00;;;;;;;28.43;39.68;100972.28;4951770;28;20494;-77
2023/09/13 08:21:29;;;;;;;0.00;0.00;;;;;;;29.76;37.44;100975.06;4981884;28;20363;-75
2023/09/13 08:23:59;;;;;;;0.00;0.00;;;;;;;30.83;35.15;100984.19;4971599;28;20094;-76
2023/09/13 08:26:24;;;;;;;0.00;0.00;;;;;;;31.88;32.81;100972.25;4999305;28;20520;-77
2023/09/13 08:28:50;;;;;;;0.00;0.00;;;;;;;32.59;31.82;100979.22;4958619;28;20026;-77
2023/09/13 08:31:17;;;;;;;0.00;0.00;;;;;;;33.36;30.27;100986.44;4974120;28;20081;-76
2023/09/13 08:33:46;;;;;;;0.00;0.00;;;;;;;33.52;28.39;100978.28;4989545;28;20141;-78
2023/09/13 08:36:12;;;;;;;0.00;0.00;;;;;;;34.01;28.58;100986.16;4983643;28;20109;-77
2023/09/13 08:38:40;;;;;;;0.00;0.00;;;;;;;34.98;27.86;100978.94;4982309;28;20118;-75
2023/09/13 08:41:05;;;;;;;0.00;0.00;;;;;;;35.89;26.35;100979.50;4950850;28;20496;-76
2023/09/13 08:43:32;;;;;;;0.00;0.00;;;;;;;37.35;25.41;101003.94;4986980;28;20065;-76
2023/09/13 08:46:02;;;;;;;0.00;0.00;;;;;;;36.88;25.24;101003.19;4970306;28;20050;-76
2023/09/13 08:48:28;;;;;;;0.00;0.00;;;;;;;35.52;26.09;100990.50;4990682;28;20022;-77
2023/09/13 08:50:54;;;;;;;0.00;0.00;;;;;;;35.10;26.70;101001.91;4968588;28;20092;-78
2023/09/13 08:53:20;;;;;;;0.00;0.00;;;;;;;34.17;27.87;101014.00;4961568;28;20031;-72
2023/09/13 08:55:48;;;;;;;0.00;0.00;;;;;;;32.59;29.58;101006.72;4967100;28;20027;-73
2023/09/13 08:58:18;;;;;;;0.00;0.00;;;;;;;32.26;30.84;100994.59;4985804;28;20038;-73
2023/09/13 09:00:46;;;;;;;0.00;0.00;;;;;;;33.00;29.98;100995.81;4954775;28;20432;-72
2023/09/13 09:03:13;;;;;;;0.00;0.00;;;;;;;34.59;27.62;100998.75;4983319;28;20717;-73
2023/09/13 09:05:40;;;;;;;0.00;0.00;;;;;;;35.32;26.98;100998.06;4989676;28;20837;-73
2023/09/13 09:08:06;;;;;;;0.00;0.00;;;;;;;35.90;25.66;101004.66;5007794;28;20484;-73
2023/09/13 09:10:32;;;;;;;0.00;0.00;;;;;;;34.54;26.55;100993.50;4983600;28;20029;-72
2023/09/13 09:12:59;;;;;;;0.00;0.00;;;;;;;35.63;25.84;101002.56;5008007;28;20981;-73
2023/09/13 09:15:26;;;;;;;0.00;0.00;;;;;;;37.65;24.03;101004.94;5001026;28;20061;-73
2023/09/13 09:17:54;;;;;;;0.00;0.00;;;;;;;39.83;21.67;100995.31;5001093;28;20057;-73
2023/09/13 09:20:20;;;;;;;0.00;0.00;;;;;;;41.10;20.18;101004.22;4994710;28;20036;-73
2023/09/13 09:22:45;;;;;;;0.00;0.00;;;;;;;41.00;20.70;100994.75;5010760;28;20026;-73
2023/09/13 09:25:12;;;;;;;0.00;0.00;;;;;;;40.75;20.87;100995.63;4992579;28;20026;-72
2023/09/13 09:27:41;;;;;;;0.00;0.00;;;;;;;38.83;22.48;101000.56;5022487;28;20083;-73
2023/09/13 09:30:07;;;;;;;0.00;0.00;;;;;;;39.86;21.96;101000.91;5010110;28;20450;-75
2023/09/13 09:32:38;;;;;;;0.00;0.00;;;;;;;38.90;22.13;100999.56;5019384;28;20057;-74
2023/09/13 09:35:07;;;;;;;0.00;0.00;;;;;;;36.32;24.33;101002.44;5002370;28;20164;-73
2023/09/13 09:37:34;;;;;;;0.00;0.00;;;;;;;34.52;26.03;101015.84;4983814;28;20034;-72
2023/09/13 09:40:00;;;;;;;0.00;0.00;;;;;;;33.12;27.41;101003.06;5008666;28;20026;-76
2023/09/13 09:42:29;;;;;;;0.00;0.00;;;;;;;32.00;28.96;101007.84;5001023;28;20467;-72
2023/09/13 09:44:55;;;;;;;0.00;0.00;;;;;;;31.67;29.60;101015.38;5038422;28;20106;-73
2023/09/13 09:47:21;;;;;;;0.00;0.00;;;;;;;32.02;30.32;101006.22;5020591;28;20085;-74
2023/09/13 09:49:47;;;;;;;0.00;0.00;;;;;;;34.23;28.27;101009.53;5010695;28;20717;-73
2023/09/13 09:52:14;;;;;;;0.00;0.00;;;;;;;37.19;25.49;101001.78;5002697;28;20049;-72
2023/09/13 09:54:40;;;;;;;0.00;0.00;;;;;;;39.75;22.82;101000.44;5041228;28;20044;-73
2023/09/13 09:57:06;;;;;;;0.00;0.00;;;;;;;42.61;20.16;101006.16;5019379;28;20033;-71
2023/09/13 09:59:36;;;;;;;0.00;0.00;;;;;;;43.79;18.66;101002.91;5026173;28;20030;-71
2023/09/13 10:02:03;;;;;;;0.00;0.00;;;;;;;42.68;19.11;101008.72;5002816;28;20035;-75
2023/09/13 10:04:28;;;;;;;0.00;0.00;;;;;;;43.29;18.33;100991.66;5024114;28;20063;-73
2023/09/13 10:07:03;;;;;;;0.00;0.00;;;;;;;44.81;17.45;101011.06;5003825;28;20042;-72
2023/09/13 10:09:46;;;;;;;0.00;0.00;;;;;;;43.93;18.13;101013.75;5015435;28;20045;-74
2023/09/13 10:12:13;;;;;;;0.00;0.00;;;;;;;41.12;19.38;101005.38;5005637;28;20411;-74
2023/09/13 10:14:43;;;;;;;0.00;0.00;;;;;;;38.33;21.43;100996.91;5001718;28;20034;-73
2023/09/13 10:17:17;;;;;;;0.00;0.00;;;;;;;35.87;23.64;100988.47;5002373;28;20441;-74
2023/09/13 10:19:46;;;;;;;0.00;0.00;;;;;;;34.43;25.77;100993.59;4990474;28;20026;-75
2023/09/13 10:22:15;;;;;;;0.00;0.00;;;;;;;34.61;25.41;100987.75;5004581;28;20022;-74
2023/09/13 10:24:56;;;;;;;0.00;0.00;;;;;;;33.13;26.39;100996.16;4964186;28;20558;-72
2023/09/13 10:27:25;;;;;;;0.00;0.00;;;;;;;31.89;28.10;100988.00;5000140;28;20069;-73
2023/09/13 10:30:00;;;;;;;0.00;0.00;;;;;;;31.89;28.82;100992.84;4989142;28;20019;-72
2023/09/13 10:32:47;;;;;;;0.00;0.00;;;;;;;37.63;24.92;100981.75;5007541;28;20396;-76
2023/09/13 10:35:15;;;;;;;0.00;0.00;;;;;;;42.66;20.09;101011.31;5000958;28;20079;-72
2023/09/13 10:38:06;;;;;;;0.00;0.00;;;;;;;42.84;18.32;101017.03;5006257;28;20049;-73
2023/09/13 10:40:39;;;;;;;0.00;0.00;;;;;;;39.23;20.15;101017.44;5002668;28;20037;-71
2023/09/13 10:43:06;;;;;;;0.00;0.00;;;;;;;36.39;21.99;101012.09;5009353;28;20021;-73
2023/09/13 10:45:31;;;;;;;0.00;0.00;;;;;;;36.12;23.77;100998.66;4998180;28;20113;-73
2023/09/13 10:47:59;;;;;;;0.00;0.00;;;;;;;36.08;23.67;101003.59;4994392;28;20405;-72
2023/09/13 10:50:25;;;;;;;0.00;0.00;;;;;;;34.81;24.60;101011.97;4984207;28;21043;-75
2023/09/13 10:52:52;;;;;;;0.00;0.00;;;;;;;33.56;25.75;101012.28;5013020;28;20079;-74
2023/09/13 10:55:19;;;;;;;0.00;0.00;;;;;;;32.47;26.81;101008.75;4985666;28;20037;-74
2023/09/13 10:57:45;;;;;;;0.00;0.00;;;;;;;32.12;27.69;101015.16;5004399;28;20077;-73
2023/09/13 11:00:12;;;;;;;0.00;0.00;;;;;;;33.01;27.24;101010.78;5006529;28;20148;-72
2023/09/13 11:02:43;;;;;;;0.00;0.00;;;;;;;33.00;27.28;101009.16;4992594;28;20771;-73
2023/09/13 11:05:14;;;;;;;0.00;0.00;;;;;;;35.41;26.25;101009.72;5004896;28;20026;-73
2023/09/13 11:07:46;;;;;;;0.00;0.00;;;;;;;40.68;22.09;101008.13;4973992;28;20100;-71
2023/09/13 11:10:31;;;;;;;0.00;0.00;;;;;;;44.58;18.87;101015.53;4990111;28;20384;-72
2023/09/13 11:16:35;;;;;;;0.00;0.00;;;;;;;47.41;15.83;101019.34;4994997;28;20073;-73
2023/09/13 11:19:05;;;;;;;0.00;0.00;;;;;;;49.48;13.64;101025.25;4980448;28;20810;-74
2023/09/13 11:21:51;;;;;;;0.00;0.00;;;;;;;50.41;13.10;101012.53;4999455;28;20041;-73
2023/09/13 11:24:36;;;;;;;0.00;0.00;;;;;;;48.52;13.19;101005.44;4991438;28;20028;-73
2023/09/13 11:27:17;;;;;;;0.00;0.00;;;;;;;44.85;15.43;101000.13;4978338;28;20036;-75
2023/09/13 11:29:57;;;;;;;0.00;0.00;;;;;;;41.50;17.71;100986.34;4992837;28;20100;-75